sensor_id;sensor_type;location;lat;lon;timestamp;P1;P2;P0
71794;PMS7003;59641;45.188;5.712;2024-03-23T00:54:18;2.80;2.80;2.00
71794;PMS7003;59641;45.188;5.712;2024-03-23T00:56:43;3.00;3.00;2.00
71794;PMS7003;59641;45.188;5.712;2024-03-23T00:59:08;3.75;3.00;2.25
71794;PMS7003;59641;45.188;5.712;2024-03-23T01:01:34;3.00;3.00;2.00
71794;PMS7003;59641;45.188;5.712;2024-03-23T01:03:59;5.25;4.00;2.75
71794;PMS7003;59641;45.188;5.712;2024-03-23T01:06:25;2.25;2.25;2.00
71794;PMS7003;59641;45.188;5.712;2024-03-23T01:08:50;3.00;2.50;2.00
71794;PMS7003;59641;45.188;5.712;2024-03-23T01:11:15;3.75;3.75;3.00
71794;PMS7003;59641;45.188;5.712;2024-03-23T01:13:40;1.50;1.50;1.25
71794;PMS7003;59641;45.188;5.712;2024-03-23T01:16:06;3.50;3.50;2.50
71794;PMS7003;59641;45.188;5.712;2024-03-23T01:18:31;2.00;2.00;2.00
71794;PMS7003;59641;45.188;5.712;2024-03-23T01:20:58;2.80;2.80;2.00
71794;PMS7003;59641;45.188;5.712;2024-03-23T01:23:23;4.00;4.00;3.00
71794;PMS7003;59641;45.188;5.712;2024-03-23T01:25:52;2.75;2.50;1.25
71794;PMS7003;59641;45.188;5.712;2024-03-23T01:28:18;3.20;3.20;2.00
71794;PMS7003;59641;45.188;5.712;2024-03-23T01:30:44;2.40;2.40;1.60
71794;PMS7003;59641;45.188;5.712;2024-03-23T01:33:10;2.50;2.50;2.00
71794;PMS7003;59641;45.188;5.712;2024-03-23T01:35:35;2.00;2.00;2.00
71794;PMS7003;59641;45.188;5.712;2024-03-23T01:38:01;3.00;2.25;2.00
71794;PMS7003;59641;45.188;5.712;2024-03-23T01:40:26;2.00;2.00;2.00
71794;PMS7003;59641;45.188;5.712;2024-03-23T01:42:56;2.00;2.00;1.00
71794;PMS7003;59641;45.188;5.712;2024-03-23T01:45:21;3.00;3.00;3.00
71794;PMS7003;59641;45.188;5.712;2024-03-23T01:47:48;3.40;3.00;2.20
71794;PMS7003;59641;45.188;5.712;2024-03-23T01:50:14;3.20;2.60;2.00
71794;PMS7003;59641;45.188;5.712;2024-03-23T01:52:40;4.00;4.00;3.00
71794;PMS7003;59641;45.188;5.712;2024-03-23T01:55:05;3.00;3.00;2.00
71794;PMS7003;59641;45.188;5.712;2024-03-23T01:57:32;2.60;2.00;2.00
71794;PMS7003;59641;45.188;5.712;2024-03-23T01:59:57;3.00;3.00;2.00
71794;PMS7003;59641;45.188;5.712;2024-03-23T02:02:22;6.75;4.75;3.00
71794;PMS7003;59641;45.188;5.712;2024-03-23T02:04:48;5.25;5.25;3.50
71794;PMS7003;59641;45.188;5.712;2024-03-23T02:07:13;4.75;4.75;4.00
71794;PMS7003;59641;45.188;5.712;2024-03-23T02:09:39;3.50;3.50;1.75
71794;PMS7003;59641;45.188;5.712;2024-03-23T02:12:04;5.50;4.75;3.25
71794;PMS7003;59641;45.188;5.712;2024-03-23T02:14:30;6.00;5.00;3.75
71794;PMS7003;59641;45.188;5.712;2024-03-23T02:16:55;5.25;5.25;4.00
71794;PMS7003;59641;45.188;5.712;2024-03-23T02:19:20;4.00;4.00;3.50
71794;PMS7003;59641;45.188;5.712;2024-03-23T02:21:46;6.50;5.25;3.25
71794;PMS7003;59641;45.188;5.712;2024-03-23T02:24:12;4.80;4.80;4.60
71794;PMS7003;59641;45.188;5.712;2024-03-23T02:26:37;4.50;4.50;4.00
71794;PMS7003;59641;45.188;5.712;2024-03-23T02:29:03;4.00;4.00;2.25
71794;PMS7003;59641;45.188;5.712;2024-03-23T02:31:28;4.25;4.25;3.75
71794;PMS7003;59641;45.188;5.712;2024-03-23T02:33:53;5.75;5.75;4.25
71794;PMS7003;59641;45.188;5.712;2024-03-23T02:36:19;5.00;5.00;3.75
71794;PMS7003;59641;45.188;5.712;2024-03-23T02:38:46;3.00;3.00;3.00
71794;PMS7003;59641;45.188;5.712;2024-03-23T02:41:11;6.00;5.00;5.00
71794;PMS7003;59641;45.188;5.712;2024-03-23T02:43:37;6.50;6.50;4.50
71794;PMS7003;59641;45.188;5.712;2024-03-23T02:46:02;5.25;5.00;3.50
71794;PMS7003;59641;45.188;5.712;2024-03-23T02:48:29;6.00;6.00;4.00
71794;PMS7003;59641;45.188;5.712;2024-03-23T02:50:54;5.00;4.75;4.00
71794;PMS7003;59641;45.188;5.712;2024-03-23T02:53:20;5.75;5.75;3.50
71794;PMS7003;59641;45.188;5.712;2024-03-23T02:55:45;5.50;5.00;4.00
71794;PMS7003;59641;45.188;5.712;2024-03-23T02:58:11;5.75;5.00;4.25
71794;PMS7003;59641;45.188;5.712;2024-03-23T03:00:36;3.75;3.75;3.50
71794;PMS7003;59641;45.188;5.712;2024-03-23T03:03:01;4.00;4.00;3.00
71794;PMS7003;59641;45.188;5.712;2024-03-23T03:05:28;3.75;3.75;3.25
71794;PMS7003;59641;45.188;5.712;2024-03-23T03:07:53;4.00;4.00;4.00
71794;PMS7003;59641;45.188;5.712;2024-03-23T03:10:19;4.50;4.50;2.50
71794;PMS7003;59641;45.188;5.712;2024-03-23T03:12:44;6.00;3.00;2.00
71794;PMS7003;59641;45.188;5.712;2024-03-23T03:15:09;2.75;2.75;2.00
71794;PMS7003;59641;45.188;5.712;2024-03-23T03:17:35;5.75;4.75;3.75
71794;PMS7003;59641;45.188;5.712;2024-03-23T03:20:00;3.50;3.50;3.00
71794;PMS7003;59641;45.188;5.712;2024-03-23T03:22:25;4.25;2.00;1.00
71794;PMS7003;59641;45.188;5.712;2024-03-23T03:24:51;4.75;4.75;3.75
71794;PMS7003;59641;45.188;5.712;2024-03-23T03:27:16;4.00;4.00;3.00
71794;PMS7003;59641;45.188;5.712;2024-03-23T03:29:42;2.00;2.00;2.00
71794;PMS7003;59641;45.188;5.712;2024-03-23T03:32:07;1.00;1.00;1.00
71794;PMS7003;59641;45.188;5.712;2024-03-23T03:34:33;2.00;2.00;1.40
71794;PMS7003;59641;45.188;5.712;2024-03-23T03:36:58;2.50;2.50;2.50
71794;PMS7003;59641;45.188;5.712;2024-03-23T03:39:24;2.50;2.50;2.00
71794;PMS7003;59641;45.188;5.712;2024-03-23T03:41:50;3.25;1.75;1.25
71794;PMS7003;59641;45.188;5.712;2024-03-23T03:44:16;2.50;2.50;1.00
71794;PMS7003;59641;45.188;5.712;2024-03-23T03:46:42;4.00;4.00;3.00
71794;PMS7003;59641;45.188;5.712;2024-03-23T03:49:07;3.25;2.75;2.75
71794;PMS7003;59641;45.188;5.712;2024-03-23T03:51:33;2.75;2.75;2.25
71794;PMS7003;59641;45.188;5.712;2024-03-23T03:53:58;3.25;2.00;1.50
71794;PMS7003;59641;45.188;5.712;2024-03-23T03:56:24;3.50;3.50;2.00
71794;PMS7003;59641;45.188;5.712;2024-03-23T03:58:49;1.25;1.25;1.00
71794;PMS7003;59641;45.188;5.712;2024-03-23T04:01:14;4.50;3.00;2.00
71794;PMS7003;59641;45.188;5.712;2024-03-23T04:03:40;1.00;1.00;1.00
71794;PMS7003;59641;45.188;5.712;2024-03-23T04:06:08;1.80;1.80;1.20
71794;PMS7003;59641;45.188;5.712;2024-03-23T04:08:34;3.00;2.00;2.00
71794;PMS7003;59641;45.188;5.712;2024-03-23T04:10:59;2.75;2.75;2.00
71794;PMS7003;59641;45.188;5.712;2024-03-23T04:13:25;3.00;3.00;2.00
71794;PMS7003;59641;45.188;5.712;2024-03-23T04:15:53;2.25;2.25;2.00
71794;PMS7003;59641;45.188;5.712;2024-03-23T04:18:20;3.60;2.20;1.80
71794;PMS7003;59641;45.188;5.712;2024-03-23T04:20:46;2.00;2.00;1.60
71794;PMS7003;59641;45.188;5.712;2024-03-23T04:23:11;4.25;3.25;2.50
71794;PMS7003;59641;45.188;5.712;2024-03-23T04:25:37;2.00;2.00;2.00
71794;PMS7003;59641;45.188;5.712;2024-03-23T04:28:02;3.00;3.00;2.25
71794;PMS7003;59641;45.188;5.712;2024-03-23T04:30:27;3.00;2.00;2.00
71794;PMS7003;59641;45.188;5.712;2024-03-23T04:32:54;1.20;1.00;1.00
71794;PMS7003;59641;45.188;5.712;2024-03-23T04:35:19;1.00;1.00;1.00
71794;PMS7003;59641;45.188;5.712;2024-03-23T04:37:47;1.20;1.20;1.00
71794;PMS7003;59641;45.188;5.712;2024-03-23T04:40:12;1.75;1.75;1.00
71794;PMS7003;59641;45.188;5.712;2024-03-23T04:42:38;1.80;1.80;1.00
71794;PMS7003;59641;45.188;5.712;2024-03-23T04:45:04;2.75;2.75;2.00
71794;PMS7003;59641;45.188;5.712;2024-03-23T04:47:31;4.00;2.80;2.00
71794;PMS7003;59641;45.188;5.712;2024-03-23T04:49:56;4.00;4.00;3.25
71794;PMS7003;59641;45.188;5.712;2024-03-23T04:52:21;4.75;4.50;3.00
71794;PMS7003;59641;45.188;5.712;2024-03-23T04:54:47;3.00;3.00;3.00
71794;PMS7003;59641;45.188;5.712;2024-03-23T04:57:12;5.00;5.00;4.00
71794;PMS7003;59641;45.188;5.712;2024-03-23T04:59:38;3.75;3.75;3.00
71794;PMS7003;59641;45.188;5.712;2024-03-23T05:02:03;5.75;5.00;3.50
71794;PMS7003;59641;45.188;5.712;2024-03-23T05:04:28;6.50;5.50;3.00
71794;PMS7003;59641;45.188;5.712;2024-03-23T05:06:54;4.75;4.25;3.00
71794;PMS7003;59641;45.188;5.712;2024-03-23T05:09:19;5.00;5.00;4.00
71794;PMS7003;59641;45.188;5.712;2024-03-23T05:11:44;5.75;5.75;4.25
71794;PMS7003;59641;45.188;5.712;2024-03-23T05:14:11;6.00;5.00;4.00
71794;PMS7003;59641;45.188;5.712;2024-03-23T05:16:38;5.00;5.00;3.40
71794;PMS7003;59641;45.188;5.712;2024-03-23T05:19:03;4.25;4.00;3.50
71794;PMS7003;59641;45.188;5.712;2024-03-23T05:21:28;6.00;5.75;4.75
71794;PMS7003;59641;45.188;5.712;2024-03-23T05:23:54;6.25;6.00;5.00
71794;PMS7003;59641;45.188;5.712;2024-03-23T05:26:19;6.00;6.00;4.50
71794;PMS7003;59641;45.188;5.712;2024-03-23T05:28:45;5.00;5.00;4.25
71794;PMS7003;59641;45.188;5.712;2024-03-23T05:31:10;8.25;5.00;4.75
71794;PMS7003;59641;45.188;5.712;2024-03-23T05:33:36;6.00;6.00;4.25
71794;PMS7003;59641;45.188;5.712;2024-03-23T05:36:03;3.60;3.60;2.80
71794;PMS7003;59641;45.188;5.712;2024-03-23T05:38:29;4.20;4.00;4.00
71794;PMS7003;59641;45.188;5.712;2024-03-23T05:40:57;3.75;3.75;2.50
71794;PMS7003;59641;45.188;5.712;2024-03-23T05:43:24;5.60;5.00;3.00
71794;PMS7003;59641;45.188;5.712;2024-03-23T05:45:56;3.80;3.80;2.40
71794;PMS7003;59641;45.188;5.712;2024-03-23T05:48:23;2.00;2.00;2.00
71794;PMS7003;59641;45.188;5.712;2024-03-23T05:50:49;3.00;3.00;2.00
71794;PMS7003;59641;45.188;5.712;2024-03-23T05:53:18;4.80;4.40;3.00
71794;PMS7003;59641;45.188;5.712;2024-03-23T05:55:45;4.00;3.00;3.00
71794;PMS7003;59641;45.188;5.712;2024-03-23T05:58:12;6.00;6.00;4.40
71794;PMS7003;59641;45.188;5.712;2024-03-23T06:00:38;7.00;7.00;5.75
71794;PMS7003;59641;45.188;5.712;2024-03-23T06:03:03;9.00;8.00;6.25
71794;PMS7003;59641;45.188;5.712;2024-03-23T06:05:29;8.00;8.00;5.00
71794;PMS7003;59641;45.188;5.712;2024-03-23T06:07:54;6.50;6.50;5.00
71794;PMS7003;59641;45.188;5.712;2024-03-23T06:10:19;9.50;8.50;7.25
71794;PMS7003;59641;45.188;5.712;2024-03-23T06:12:47;13.00;10.75;9.00
71794;PMS7003;59641;45.188;5.712;2024-03-23T06:15:14;12.40;12.00;8.80
71794;PMS7003;59641;45.188;5.712;2024-03-23T06:17:39;10.00;9.25;6.00
71794;PMS7003;59641;45.188;5.712;2024-03-23T06:20:05;10.25;8.50;7.75
71794;PMS7003;59641;45.188;5.712;2024-03-23T06:22:33;11.25;11.25;8.50
71794;PMS7003;59641;45.188;5.712;2024-03-23T06:24:59;11.00;9.25;6.25
71794;PMS7003;59641;45.188;5.712;2024-03-23T06:27:24;8.75;8.50;6.50
71794;PMS7003;59641;45.188;5.712;2024-03-23T06:29:50;9.75;8.75;6.00
71794;PMS7003;59641;45.188;5.712;2024-03-23T06:32:15;9.00;7.75;6.00
71794;PMS7003;59641;45.188;5.712;2024-03-23T06:34:41;7.00;7.00;5.00
71794;PMS7003;59641;45.188;5.712;2024-03-23T06:37:07;11.80;10.00;6.00
71794;PMS7003;59641;45.188;5.712;2024-03-23T06:39:34;7.80;6.80;6.00
71794;PMS7003;59641;45.188;5.712;2024-03-23T06:42:00;8.25;7.75;6.00
71794;PMS7003;59641;45.188;5.712;2024-03-23T06:44:25;10.50;9.50;6.00
71794;PMS7003;59641;45.188;5.712;2024-03-23T06:46:51;9.50;9.00;6.50
71794;PMS7003;59641;45.188;5.712;2024-03-23T06:49:16;10.00;10.00;8.00
71794;PMS7003;59641;45.188;5.712;2024-03-23T06:51:41;13.75;11.00;8.00
71794;PMS7003;59641;45.188;5.712;2024-03-23T06:54:07;10.75;10.75;8.25
71794;PMS7003;59641;45.188;5.712;2024-03-23T06:56:32;8.50;8.50;6.00
71794;PMS7003;59641;45.188;5.712;2024-03-23T06:58:58;12.00;12.00;8.25
71794;PMS7003;59641;45.188;5.712;2024-03-23T07:01:24;11.80;11.80;8.20
71794;PMS7003;59641;45.188;5.712;2024-03-23T07:03:49;12.75;12.75;9.00
71794;PMS7003;59641;45.188;5.712;2024-03-23T07:06:15;14.75;14.00;10.00
71794;PMS7003;59641;45.188;5.712;2024-03-23T07:08:40;11.00;11.00;8.50
71794;PMS7003;59641;45.188;5.712;2024-03-23T07:11:05;10.00;10.00;7.50
71794;PMS7003;59641;45.188;5.712;2024-03-23T07:13:31;11.75;9.50;7.00
71794;PMS7003;59641;45.188;5.712;2024-03-23T07:15:56;12.75;10.25;7.25
71794;PMS7003;59641;45.188;5.712;2024-03-23T07:18:23;12.00;11.75;8.00
71794;PMS7003;59641;45.188;5.712;2024-03-23T07:20:51;12.25;12.25;8.25
71794;PMS7003;59641;45.188;5.712;2024-03-23T07:23:21;14.20;13.00;8.60
71794;PMS7003;59641;45.188;5.712;2024-03-23T07:26:00;10.75;10.00;8.00
71794;PMS7003;59641;45.188;5.712;2024-03-23T07:28:27;10.75;10.00;7.50
71794;PMS7003;59641;45.188;5.712;2024-03-23T07:31:01;11.00;11.00;7.75
71794;PMS7003;59641;45.188;5.712;2024-03-23T07:33:30;10.60;10.60;7.60
71794;PMS7003;59641;45.188;5.712;2024-03-23T07:35:56;9.50;9.50;6.50
71794;PMS7003;59641;45.188;5.712;2024-03-23T07:38:21;9.25;9.25;7.00
71794;PMS7003;59641;45.188;5.712;2024-03-23T07:40:47;8.00;8.00;5.00
71794;PMS7003;59641;45.188;5.712;2024-03-23T07:43:15;10.60;10.40;7.40
71794;PMS7003;59641;45.188;5.712;2024-03-23T07:45:40;9.75;9.75;6.00
71794;PMS7003;59641;45.188;5.712;2024-03-23T07:48:06;8.00;6.50;5.50
71794;PMS7003;59641;45.188;5.712;2024-03-23T07:50:31;7.50;7.50;5.25
71794;PMS7003;59641;45.188;5.712;2024-03-23T07:52:57;7.75;7.75;6.00
71794;PMS7003;59641;45.188;5.712;2024-03-23T07:55:22;10.25;8.50;6.00
71794;PMS7003;59641;45.188;5.712;2024-03-23T07:57:47;6.75;6.00;5.00
71794;PMS7003;59641;45.188;5.712;2024-03-23T08:00:13;7.50;5.25;4.75
71794;PMS7003;59641;45.188;5.712;2024-03-23T08:02:38;8.00;6.25;5.00
71794;PMS7003;59641;45.188;5.712;2024-03-23T08:05:04;6.00;6.00;4.25
71794;PMS7003;59641;45.188;5.712;2024-03-23T08:07:29;6.25;6.00;4.75
71794;PMS7003;59641;45.188;5.712;2024-03-23T08:09:55;7.50;7.50;4.75
71794;PMS7003;59641;45.188;5.712;2024-03-23T08:12:20;7.00;7.00;5.00
71794;PMS7003;59641;45.188;5.712;2024-03-23T08:14:45;5.50;5.25;3.00
71794;PMS7003;59641;45.188;5.712;2024-03-23T08:17:11;8.75;7.25;5.00
71794;PMS7003;59641;45.188;5.712;2024-03-23T08:19:36;4.00;4.00;4.00
71794;PMS7003;59641;45.188;5.712;2024-03-23T08:22:01;5.00;5.00;4.00
71794;PMS7003;59641;45.188;5.712;2024-03-23T08:24:27;6.00;5.50;4.00
71794;PMS7003;59641;45.188;5.712;2024-03-23T08:26:54;9.00;8.00;6.00
71794;PMS7003;59641;45.188;5.712;2024-03-23T08:29:19;8.00;8.00;5.75
71794;PMS7003;59641;45.188;5.712;2024-03-23T08:31:45;7.50;6.50;4.25
71794;PMS7003;59641;45.188;5.712;2024-03-23T08:34:10;8.00;6.50;5.00
71794;PMS7003;59641;45.188;5.712;2024-03-23T08:36:35;6.00;6.00;4.00
71794;PMS7003;59641;45.188;5.712;2024-03-23T08:39:01;6.75;6.75;4.75
71794;PMS7003;59641;45.188;5.712;2024-03-23T08:41:26;5.75;5.75;4.50
71794;PMS7003;59641;45.188;5.712;2024-03-23T08:43:52;5.75;5.75;5.00
71794;PMS7003;59641;45.188;5.712;2024-03-23T08:46:17;5.00;5.00;4.00
71794;PMS7003;59641;45.188;5.712;2024-03-23T08:48:43;2.00;2.00;1.25
71794;PMS7003;59641;45.188;5.712;2024-03-23T08:51:11;0.00;0.00;0.00
71794;PMS7003;59641;45.188;5.712;2024-03-23T08:53:41;3.00;2.00;1.00
71794;PMS7003;59641;45.188;5.712;2024-03-23T08:56:07;0.20;0.20;0.00
71794;PMS7003;59641;45.188;5.712;2024-03-23T08:58:33;0.00;0.00;0.00
71794;PMS7003;59641;45.188;5.712;2024-03-23T09:01:07;0.00;0.00;0.00
71794;PMS7003;59641;45.188;5.712;2024-03-23T09:03:32;0.00;0.00;0.00
71794;PMS7003;59641;45.188;5.712;2024-03-23T09:05:58;0.00;0.00;0.00
71794;PMS7003;59641;45.188;5.712;2024-03-23T09:08:24;0.00;0.00;0.00
71794;PMS7003;59641;45.188;5.712;2024-03-23T09:10:51;0.00;0.00;0.00
71794;PMS7003;59641;45.188;5.712;2024-03-23T09:13:17;0.00;0.00;0.00
71794;PMS7003;59641;45.188;5.712;2024-03-23T09:15:49;0.00;0.00;0.00
71794;PMS7003;59641;45.188;5.712;2024-03-23T09:18:16;0.00;0.00;0.00
71794;PMS7003;59641;45.188;5.712;2024-03-23T09:20:42;0.00;0.00;0.00
71794;PMS7003;59641;45.188;5.712;2024-03-23T09:23:07;0.00;0.00;0.00
71794;PMS7003;59641;45.188;5.712;2024-03-23T09:25:37;0.00;0.00;0.00
71794;PMS7003;59641;45.188;5.712;2024-03-23T09:28:03;0.40;0.00;0.00
71794;PMS7003;59641;45.188;5.712;2024-03-23T09:30:29;1.00;1.00;0.00
71794;PMS7003;59641;45.188;5.712;2024-03-23T09:32:54;1.00;0.00;0.00
71794;PMS7003;59641;45.188;5.712;2024-03-23T09:35:19;0.00;0.00;0.00
71794;PMS7003;59641;45.188;5.712;2024-03-23T09:37:44;0.25;0.00;0.00
71794;PMS7003;59641;45.188;5.712;2024-03-23T09:40:11;0.00;0.00;0.00
71794;PMS7003;59641;45.188;5.712;2024-03-23T09:42:36;0.00;0.00;0.00
71794;PMS7003;59641;45.188;5.712;2024-03-23T09:45:02;0.00;0.00;0.00
71794;PMS7003;59641;45.188;5.712;2024-03-23T09:47:30;0.60;0.00;0.00
71794;PMS7003;59641;45.188;5.712;2024-03-23T09:49:57;0.80;0.00;0.00
71794;PMS7003;59641;45.188;5.712;2024-03-23T09:52:22;3.00;1.00;0.00
71794;PMS7003;59641;45.188;5.712;2024-03-23T09:54:48;1.00;0.00;0.00
71794;PMS7003;59641;45.188;5.712;2024-03-23T09:57:14;0.75;0.00;0.00
71794;PMS7003;59641;45.188;5.712;2024-03-23T09:59:41;0.00;0.00;0.00
71794;PMS7003;59641;45.188;5.712;2024-03-23T10:02:06;0.40;0.40;0.00
71794;PMS7003;59641;45.188;5.712;2024-03-23T10:04:36;0.00;0.00;0.00
71794;PMS7003;59641;45.188;5.712;2024-03-23T10:07:21;2.00;0.00;0.00
71794;PMS7003;59641;45.188;5.712;2024-03-23T10:09:49;1.20;0.60;0.00
71794;PMS7003;59641;45.188;5.712;2024-03-23T10:12:18;1.00;1.00;0.00
71794;PMS7003;59641;45.188;5.712;2024-03-23T10:14:44;0.00;0.00;0.00
71794;PMS7003;59641;45.188;5.712;2024-03-23T10:17:17;1.00;0.00;0.00
71794;PMS7003;59641;45.188;5.712;2024-03-23T10:19:49;0.00;0.00;0.00
71794;PMS7003;59641;45.188;5.712;2024-03-23T10:22:19;2.20;2.00;0.00
71794;PMS7003;59641;45.188;5.712;2024-03-23T10:24:46;0.00;0.00;0.00
71794;PMS7003;59641;45.188;5.712;2024-03-23T10:27:16;0.00;0.00;0.00
71794;PMS7003;59641;45.188;5.712;2024-03-23T10:29:43;0.00;0.00;0.00
71794;PMS7003;59641;45.188;5.712;2024-03-23T10:32:10;0.80;0.80;0.00
71794;PMS7003;59641;45.188;5.712;2024-03-23T10:34:36;0.60;0.40;0.00
71794;PMS7003;59641;45.188;5.712;2024-03-23T10:37:02;2.60;1.80;0.00
71794;PMS7003;59641;45.188;5.712;2024-03-23T10:39:38;1.00;0.80;0.00
71794;PMS7003;59641;45.188;5.712;2024-03-23T10:42:05;1.80;0.00;0.00
71794;PMS7003;59641;45.188;5.712;2024-03-23T10:44:40;2.00;0.00;0.00
71794;PMS7003;59641;45.188;5.712;2024-03-23T10:47:05;0.00;0.00;0.00
71794;PMS7003;59641;45.188;5.712;2024-03-23T10:49:34;1.50;1.00;0.00
71794;PMS7003;59641;45.188;5.712;2024-03-23T10:52:01;0.00;0.00;0.00
71794;PMS7003;59641;45.188;5.712;2024-03-23T10:54:30;0.00;0.00;0.00
71794;PMS7003;59641;45.188;5.712;2024-03-23T10:57:01;1.60;1.00;0.00
71794;PMS7003;59641;45.188;5.712;2024-03-23T10:59:31;0.80;0.00;0.00
71794;PMS7003;59641;45.188;5.712;2024-03-23T11:01:57;0.00;0.00;0.00
71794;PMS7003;59641;45.188;5.712;2024-03-23T11:04:34;0.00;0.00;0.00
71794;PMS7003;59641;45.188;5.712;2024-03-23T11:09:51;3.00;0.00;0.00
71794;PMS7003;59641;45.188;5.712;2024-03-23T11:14:49;1.00;0.60;0.00
71794;PMS7003;59641;45.188;5.712;2024-03-23T11:17:19;0.00;0.00;0.00
71794;PMS7003;59641;45.188;5.712;2024-03-23T11:27:45;0.00;0.00;0.00
71794;PMS7003;59641;45.188;5.712;2024-03-23T11:30:18;0.40;0.40;0.00
71794;PMS7003;59641;45.188;5.712;2024-03-23T11:32:47;1.20;0.00;0.00
71794;PMS7003;59641;45.188;5.712;2024-03-23T11:35:29;1.80;0.00;0.00
71794;PMS7003;59641;45.188;5.712;2024-03-23T11:38:16;0.00;0.00;0.00
71794;PMS7003;59641;45.188;5.712;2024-03-23T11:40:46;1.00;0.40;0.00
71794;PMS7003;59641;45.188;5.712;2024-03-23T11:43:16;0.00;0.00;0.00
71794;PMS7003;59641;45.188;5.712;2024-03-23T11:45:43;0.00;0.00;0.00
71794;PMS7003;59641;45.188;5.712;2024-03-23T11:48:18;3.60;0.00;0.00
71794;PMS7003;59641;45.188;5.712;2024-03-23T11:50:47;3.00;0.00;0.00
71794;PMS7003;59641;45.188;5.712;2024-03-23T11:53:18;1.40;0.80;0.00
71794;PMS7003;59641;45.188;5.712;2024-03-23T11:55:48;1.00;0.50;0.00
71794;PMS7003;59641;45.188;5.712;2024-03-23T11:58:15;1.00;1.00;0.00
71794;PMS7003;59641;45.188;5.712;2024-03-23T12:00:42;0.20;0.20;0.00
71794;PMS7003;59641;45.188;5.712;2024-03-23T12:03:15;1.00;1.00;0.00
71794;PMS7003;59641;45.188;5.712;2024-03-23T12:05:41;1.80;1.80;0.00
71794;PMS7003;59641;45.188;5.712;2024-03-23T12:08:22;0.00;0.00;0.00
71794;PMS7003;59641;45.188;5.712;2024-03-23T12:10:53;0.60;0.00;0.00
71794;PMS7003;59641;45.188;5.712;2024-03-23T12:13:39;0.00;0.00;0.00
71794;PMS7003;59641;45.188;5.712;2024-03-23T12:18:36;1.00;1.00;0.00
71794;PMS7003;59641;45.188;5.712;2024-03-23T12:21:02;0.60;0.60;0.00
71794;PMS7003;59641;45.188;5.712;2024-03-23T12:23:27;0.25;0.25;0.00
71794;PMS7003;59641;45.188;5.712;2024-03-23T12:25:53;0.25;0.25;0.00
71794;PMS7003;59641;45.188;5.712;2024-03-23T12:28:18;0.00;0.00;0.00
71794;PMS7003;59641;45.188;5.712;2024-03-23T12:30:44;0.75;0.75;0.50
71794;PMS7003;59641;45.188;5.712;2024-03-23T12:33:09;0.75;0.00;0.00
71794;PMS7003;59641;45.188;5.712;2024-03-23T12:35:34;1.00;0.00;0.00
71794;PMS7003;59641;45.188;5.712;2024-03-23T12:38:00;1.50;1.00;0.00
71794;PMS7003;59641;45.188;5.712;2024-03-23T12:40:25;0.00;0.00;0.00
71794;PMS7003;59641;45.188;5.712;2024-03-23T12:42:52;0.60;0.60;0.00
71794;PMS7003;59641;45.188;5.712;2024-03-23T12:45:18;0.00;0.00;0.00
71794;PMS7003;59641;45.188;5.712;2024-03-23T12:47:43;0.00;0.00;0.00
71794;PMS7003;59641;45.188;5.712;2024-03-23T12:50:09;1.75;0.00;0.00
71794;PMS7003;59641;45.188;5.712;2024-03-23T12:52:35;2.50;0.00;0.00
71794;PMS7003;59641;45.188;5.712;2024-03-23T12:55:01;0.00;0.00;0.00
71794;PMS7003;59641;45.188;5.712;2024-03-23T12:57:28;0.80;0.80;0.00
71794;PMS7003;59641;45.188;5.712;2024-03-23T12:59:54;1.00;0.00;0.00
71794;PMS7003;59641;45.188;5.712;2024-03-23T13:02:19;0.25;0.25;0.00
71794;PMS7003;59641;45.188;5.712;2024-03-23T13:04:55;3.00;1.00;0.00
71794;PMS7003;59641;45.188;5.712;2024-03-23T13:07:21;0.40;0.00;0.00
71794;PMS7003;59641;45.188;5.712;2024-03-23T13:09:49;0.00;0.00;0.00
71794;PMS7003;59641;45.188;5.712;2024-03-23T13:12:15;0.00;0.00;0.00
71794;PMS7003;59641;45.188;5.712;2024-03-23T13:14:43;0.20;0.20;0.00
71794;PMS7003;59641;45.188;5.712;2024-03-23T13:17:09;1.00;0.00;0.00
71794;PMS7003;59641;45.188;5.712;2024-03-23T13:19:34;1.25;1.25;0.50
71794;PMS7003;59641;45.188;5.712;2024-03-23T13:22:00;0.75;0.75;0.00
71794;PMS7003;59641;45.188;5.712;2024-03-23T13:24:28;1.60;0.00;0.00
71794;PMS7003;59641;45.188;5.712;2024-03-23T13:26:55;0.40;0.00;0.00
71794;PMS7003;59641;45.188;5.712;2024-03-23T13:29:21;0.00;0.00;0.00
71794;PMS7003;59641;45.188;5.712;2024-03-23T13:31:47;0.00;0.00;0.00
71794;PMS7003;59641;45.188;5.712;2024-03-23T13:34:14;1.60;1.00;0.40
71794;PMS7003;59641;45.188;5.712;2024-03-23T13:36:43;0.00;0.00;0.00
71794;PMS7003;59641;45.188;5.712;2024-03-23T13:39:08;1.60;0.60;0.00
71794;PMS7003;59641;45.188;5.712;2024-03-23T13:44:06;0.80;0.80;0.00
71794;PMS7003;59641;45.188;5.712;2024-03-23T13:46:32;0.60;0.00;0.00
71794;PMS7003;59641;45.188;5.712;2024-03-23T13:48:58;1.00;0.50;0.00
71794;PMS7003;59641;45.188;5.712;2024-03-23T13:51:24;1.00;1.00;0.00
71794;PMS7003;59641;45.188;5.712;2024-03-23T13:53:52;1.00;0.00;0.00
71794;PMS7003;59641;45.188;5.712;2024-03-23T13:56:30;0.00;0.00;0.00
71794;PMS7003;59641;45.188;5.712;2024-03-23T13:58:55;1.00;0.00;0.00
71794;PMS7003;59641;45.188;5.712;2024-03-23T14:01:21;2.20;0.00;0.00
71794;PMS7003;59641;45.188;5.712;2024-03-23T14:03:47;0.00;0.00;0.00
71794;PMS7003;59641;45.188;5.712;2024-03-23T14:06:13;0.25;0.00;0.00
71794;PMS7003;59641;45.188;5.712;2024-03-23T14:08:38;0.00;0.00;0.00
71794;PMS7003;59641;45.188;5.712;2024-03-23T14:11:08;0.20;0.20;0.00
71794;PMS7003;59641;45.188;5.712;2024-03-23T14:13:34;0.00;0.00;0.00
71794;PMS7003;59641;45.188;5.712;2024-03-23T14:16:00;0.00;0.00;0.00
71794;PMS7003;59641;45.188;5.712;2024-03-23T14:18:26;0.00;0.00;0.00
71794;PMS7003;59641;45.188;5.712;2024-03-23T14:20:52;0.00;0.00;0.00
71794;PMS7003;59641;45.188;5.712;2024-03-23T14:23:23;1.60;0.00;0.00
71794;PMS7003;59641;45.188;5.712;2024-03-23T14:25:49;0.00;0.00;0.00
71794;PMS7003;59641;45.188;5.712;2024-03-23T14:28:17;0.00;0.00;0.00
71794;PMS7003;59641;45.188;5.712;2024-03-23T14:30:42;0.00;0.00;0.00
71794;PMS7003;59641;45.188;5.712;2024-03-23T14:33:08;0.00;0.00;0.00
71794;PMS7003;59641;45.188;5.712;2024-03-23T14:35:34;0.00;0.00;0.00
71794;PMS7003;59641;45.188;5.712;2024-03-23T14:37:59;0.00;0.00;0.00
71794;PMS7003;59641;45.188;5.712;2024-03-23T14:40:24;0.00;0.00;0.00
71794;PMS7003;59641;45.188;5.712;2024-03-23T14:42:53;0.00;0.00;0.00
71794;PMS7003;59641;45.188;5.712;2024-03-23T14:45:19;0.00;0.00;0.00
71794;PMS7003;59641;45.188;5.712;2024-03-23T14:47:46;0.00;0.00;0.00
71794;PMS7003;59641;45.188;5.712;2024-03-23T14:50:11;0.00;0.00;0.00
71794;PMS7003;59641;45.188;5.712;2024-03-23T14:52:40;0.00;0.00;0.00
71794;PMS7003;59641;45.188;5.712;2024-03-23T14:55:06;0.00;0.00;0.00
71794;PMS7003;59641;45.188;5.712;2024-03-23T14:57:33;0.00;0.00;0.00
71794;PMS7003;59641;45.188;5.712;2024-03-23T14:59:59;0.00;0.00;0.00
71794;PMS7003;59641;45.188;5.712;2024-03-23T15:02:24;0.25;0.00;0.00
71794;PMS7003;59641;45.188;5.712;2024-03-23T15:04:49;0.00;0.00;0.00
71794;PMS7003;59641;45.188;5.712;2024-03-23T15:07:14;0.75;0.75;0.00
71794;PMS7003;59641;45.188;5.712;2024-03-23T15:09:41;0.00;0.00;0.00
71794;PMS7003;59641;45.188;5.712;2024-03-23T15:12:07;0.00;0.00;0.00
71794;PMS7003;59641;45.188;5.712;2024-03-23T15:14:32;0.00;0.00;0.00
71794;PMS7003;59641;45.188;5.712;2024-03-23T15:16:59;0.80;0.00;0.00
71794;PMS7003;59641;45.188;5.712;2024-03-23T15:19:25;0.00;0.00;0.00
71794;PMS7003;59641;45.188;5.712;2024-03-23T15:21:50;0.00;0.00;0.00
71794;PMS7003;59641;45.188;5.712;2024-03-23T15:24:16;0.00;0.00;0.00
71794;PMS7003;59641;45.188;5.712;2024-03-23T15:26:41;0.00;0.00;0.00
71794;PMS7003;59641;45.188;5.712;2024-03-23T15:29:07;0.00;0.00;0.00